Aviation Digital Data Service (ADDS)

Output produced by METARs form (0429 UTC 26 May 2018)
found at http://www.aviationweather.gov/adds/metars/
 
DAUA 260400Z 12007KT 9999 FEW046 SCT133 29/// Q1009
TAF DAUA 252300Z 2600/2624 17008KT 9999 SCT046 SCT100 
     BECMG 2606/2610 28012KT 
     PROB30 
     TEMPO 2608/2614 28015G25KT 5000 -TSRA FEW040CB 
     PROB40 
     TEMPO 2614/2618 33015G30KT 3000 DRSA
       
DABB 260400Z 00000KT CAVOK 16/15 Q1012
TAF DABB 252300Z 2600/2624 34008KT 9999 FEW023 
     BECMG 2609/2612 04013KT 
     PROB40 
     TEMPO 2612/2618 04015G25KT FEW023TCU 
     BECMG 2620/2622 20006KT
       
DABT 260400Z 00000KT CAVOK 16/11 Q1017
TAF DABT 252300Z 2600/2624 29009KT 9999 FEW030 
     BECMG 2607/2609 17014KT 
     PROB30 
     TEMPO 2608/2618 16015G25KT FEW023TCU 
     BECMG 2620/2623 23008KT
       
DAOR 260400Z 17004KT CAVOK 22/M02 Q1012
DAAE 260400Z 20003KT 7000 FEW006 16/15 Q1013
TAF DAAE 252300Z 2600/2624 33008KT 9999 FEW023 
     PROB40 
     TEMPO 2601/2606 3000 BR BKN010 
     BECMG 2610/2612 03010KT 
     PROB30 
     TEMPO 2612/2618 FEW030TCU
       
DAUB 260400Z 13012KT CAVOK 26/13 Q1013
TAF DAUB 252300Z 2600/2624 15014KT 9999 FEW040 
     PROB40 
     TEMPO 2601/2613 10015G35KT 3000 DRSA NSC 
     PROB30 
     TEMPO 2613/2618 FEW026TCU 
     BECMG 2622/2624 21009KT
       
DAOI 260400Z 03002KT 8000 NSC 15/11 Q1013
TAF DAOI 252300Z 2600/2624 VRB02KT 8000 NSC 
     BECMG 2609/2612 32010KT CAVOK 
     BECMG 2614/2617 VRB02KT 99999 FEW023 SCT200
       
DABC 260400Z 14003KT CAVOK 17/12 Q1016
TAF DABC 252300Z 2600/2624 VRB02KT 9999 FEW030 
     BECMG 2610/2612 16013KT 
     PROB30 
     TEMPO 2612/2618 FEW026TCU 
     BECMG 2620/2622 21008KT
       
DAAG 260400Z 10003KT 8000 FEW020 15/14 Q1013
TAF DAAG 252300Z 2600/2624 VRB02KT 9999 FEW020 
     PROB40 
     TEMPO 2600/2606 3000 BR BKN015 
     PROB30 
     TEMPO 2602/2606 0800 FG BKN010 
     BECMG 2609/2612 35010KT 
     BECMG 2617/2620 VRB02KT
       
DAAJ 260400Z 02010KT 4000 HZ SCT046 30/07 Q1016
TAF DAAJ 252300Z 2600/2624 06008KT 4000 HZ SCT046 SCT100 
     PROB40 
     TEMPO 2600/2603 FEW040TCU 
     BECMG 2604/2608 6000 NSW 
     BECMG 2609/2612 30010KT 
     PROB30 
     TEMPO 2611/2614 30015G25KT 2000 DRSA FEW040CB 
     PROB40 
     TEMPO 2612/2616 30015G25KT 5000 -TSRA FEW033CB SCT040TCU
       
DAUE 260400Z 17002KT 9999 FEW040 SCT200 26/08 Q1011
DAUO 260400Z 10010KT CAVOK 23/13 Q1011
DAUG 260400Z 00000KT CAVOK 23/03 Q1013
TAF DAUG 252300Z 2600/2624 VRB02KT CAVOK 
     PROB30 
     TEMPO 2606/2612 FEW040TCU 
     BECMG 2609/2612 09010KT 
     BECMG 2612/2615 26014KT 
     PROB40 
     TEMPO 2613/2618 26015G30KT 3000 DRSA 
     PROB30 
     TEMPO 2614/2620 26015G25KT 5000 -TSRA FEW033CB
       
DAUH 260400Z 08010KT CAVOK 27/03 Q1010
TAF DAUH 252300Z 2600/2624 14010KT 8000 NSC 
     PROB30 
     TEMPO 2600/2606 14020KT 5000 DRSA 
     BECMG 2612/2615 30010KT
       
DAAP 260400Z 00000KT 8000 SCT046 30/08 Q1013
DAUZ 260400Z 10009KT 5000 FEW033CB SCT046 30/M00 Q1013
TAF AMD DAUZ 260212Z 2602/2624 32022KT 1000 BLSA SCT046 SCT100 
     TEMPO 2602/2605 FEW033CB 
     BECMG 2604/2608 16010KT 6000 NSW 
     PROB30 
     TEMPO 2604/2610 3000 HZ 
     BECMG 2610/2614 06010KT
       
DAUI 260400Z 08003KT 8000 NSC 29/01 Q1010
TAF DAUI 252300Z 2600/2624 02008KT 8000 FEW046 
     BECMG 2609/2612 12012KT 
     PROB30 
     TEMPO 2609/2613 12022KT 4000 DRSA FEW040TCU 
     BECMG 2616/2620 32010KT 
     PROB40 
     TEMPO 2619/2624 35020G35KT 1000 BLSA
       
DAAV 260400Z 09003KT 8000 FEW020 BKN030 19/17 Q1013
TAF DAAV 252300Z 2600/2624 26008KT 9999 FEW023 
     PROB40 
     TEMPO 2600/2606 3000 BR BKN010 
     BECMG 2610/2612 03011KT 
     PROB30 
     TEMPO 2612/2618 FEW020TCU 
     BECMG 2620/2623 32007KT
       
DAUL 260400Z 03012KT 8000 NSC 20/05 Q1014
DAOV 260400Z 00000KT CAVOK 10/07 Q1014
DAAY 260300Z 36010KT 7000 SCT030 15/08 Q1017
DAOO 260400Z 22006KT CAVOK 15/11 Q1013
TAF DAOO 252300Z 2600/2624 22005KT CAVOK 
     BECMG 2601/2603 VRB02KT 
     BECMG 2609/2612 32010KT 9999 FEW026 
     BECMG 2619/2622 VRB02KT CAVOK
       
DAOL 260400Z 15002KT CAVOK 12/12 Q1014
DAUU 260400Z 10015KT CAVOK 28/02 Q1009
DAAS 260400Z 02004KT CAVOK 17/12 Q1018
TAF DAAS 252300Z 2600/2624 04008KT 9999 FEW026 
     BECMG 2609/2612 14014KT 
     PROB40 
     TEMPO 2612/2618 18015G25KT FEW023TCU
       
DAAT 260400Z 06008KT 6000 NSC 29/M01 Q1019
TAF DAAT 252300Z 2600/2624 07010KT 6000 SCT046 SCT120 
     PROB30 
     TEMPO 2600/2606 3000 HZ FEW040TCU 
     BECMG 2608/2611 12014KT 
     PROB40 
     TEMPO 2609/2613 12015G30KT
       
DABS 260400Z 17004KT CAVOK 19/11 Q1018
TAF DABS 252300Z 2600/2624 15012KT 9999 FEW040 
     PROB30 
     TEMPO 2612/2618 FEW030TCU
       
DAOB 260400Z 19005KT CAVOK 08/07 Q1015
TAF DAOB 252300Z 2600/2624 33008KT CAVOK 
     BECMG 2610/2614 22015KT 
     PROB30 
     TEMPO 2612/2618 22015G30KT 5000 DRSA
       
DAUT 260400Z 22008KT 9999 SCT046 SCT120 28/M06 Q1008
DAOF 260400Z 28016KT CAVOK 14/09 Q1011
DAON 260400Z 00000KT CAVOK 11/09 Q1014
TAF DAON 252300Z 2600/2624 VRB02KT 9999 FEW026 
     BECMG 2609/2612 34012KT CAVOK 
     BECMG 2619/2622 VRB02KT
       
DAUK 260400Z 09006KT CAVOK 26/09 Q1011